Time;durP1;ratioP1;P1;durP2;ratioP2;P2;SDS_P1;SDS_P2;PMS_P1;PMS_P2;Temp;Humidity;BMP_temperature;BMP_pressure;BME280_temperature;BME280_humidity;BME280_pressure;Samples;Min_cycle;Max_cycle;Signal;HPM_P1;HPM_P2
2022/01/18 00:00:03;;;;;;;10.30;8.43;;;;;;;6.00;57.75;102306.34;5014072;28;20100;-80
2022/01/18 00:02:29;;;;;;;14.10;9.13;;;;;;;5.84;58.99;102300.81;5022362;28;20056;-81
2022/01/18 00:04:56;;;;;;;14.95;9.13;;;;;;;5.59;58.91;102274.63;5052229;28;20468;-80
2022/01/18 00:07:23;;;;;;;12.60;8.38;;;;;;;5.81;59.22;102319.41;5034791;28;20095;-81
2022/01/18 00:09:51;;;;;;;15.52;9.00;;;;;;;5.85;58.48;102310.44;5052529;28;20404;-80
2022/01/18 00:18:05;;;;;;;15.40;9.13;;;;;;;5.79;59.08;102319.44;5026477;28;20378;-81
2022/01/18 00:23:45;;;;;;;10.52;9.00;;;;;;;5.64;59.87;102330.63;5056706;28;20485;-81
2022/01/18 00:26:12;;;;;;;12.38;8.38;;;;;;;5.56;59.65;102312.50;5034715;28;20052;-81
2022/01/18 00:28:40;;;;;;;14.15;9.35;;;;;;;5.68;59.77;102333.97;5033700;28;20045;-82
2022/01/18 00:34:12;;;;;;;12.02;9.40;;;;;;;5.64;60.38;102345.59;5052504;28;20055;-80
2022/01/18 00:39:10;;;;;;;12.48;9.43;;;;;;;5.54;60.62;102334.56;5051392;28;20131;-82
2022/01/18 00:41:38;;;;;;;22.80;9.77;;;;;;;4.87;61.05;102230.97;5033727;28;20131;-81
2022/01/18 00:44:06;;;;;;;12.85;8.15;;;;;;;5.41;60.85;102312.25;5033934;28;20057;-81
2022/01/18 00:46:34;;;;;;;11.38;8.98;;;;;;;5.62;60.66;102343.00;5033190;28;20545;-81
2022/01/18 00:49:02;;;;;;;14.48;9.43;;;;;;;5.63;61.20;102352.63;5051884;28;20136;-81
2022/01/18 00:51:33;;;;;;;9.85;7.55;;;;;;;5.27;61.08;102297.88;5035342;28;20047;-81
2022/01/18 00:54:00;;;;;;;14.63;8.52;;;;;;;5.63;61.22;102349.13;5057865;28;20045;-80
2022/01/18 00:56:30;;;;;;;14.10;9.07;;;;;;;5.62;60.91;102348.28;5034630;28;20139;-81
2022/01/18 00:58:59;;;;;;;8.82;7.43;;;;;;;5.60;60.88;102350.09;5033909;28;20069;-81
2022/01/18 01:01:28;;;;;;;11.23;8.48;;;;;;;5.46;61.84;102326.97;5033251;28;20094;-80
2022/01/18 01:03:59;;;;;;;13.77;8.00;;;;;;;5.67;61.97;102371.81;5032612;28;20499;-80
2022/01/18 01:06:26;;;;;;;11.45;8.13;;;;;;;4.90;62.56;102251.94;5033399;28;20140;-80
2022/01/18 01:08:53;;;;;;;11.88;7.88;;;;;;;5.61;62.42;102380.81;5050828;28;20045;-80
2022/01/18 01:11:21;;;;;;;8.45;7.22;;;;;;;5.10;63.16;102297.66;5033305;28;20452;-80
2022/01/18 01:13:50;;;;;;;9.48;7.38;;;;;;;5.51;61.85;102374.19;5049542;28;20049;-80
2022/01/18 01:19:07;;;;;;;17.50;8.45;;;;;;;5.45;60.87;102334.91;5050877;28;20488;-80
2022/01/18 01:43:12;;;;;;;9.82;7.63;;;;;;;5.37;61.10;102385.28;5050246;28;20075;-82
2022/01/18 01:45:40;;;;;;;9.82;7.03;;;;;;;5.44;61.49;102404.34;5032042;28;20045;-80
2022/01/18 01:48:08;;;;;;;9.35;7.55;;;;;;;5.35;61.88;102371.28;5049694;28;20055;-80
2022/01/18 01:50:54;;;;;;;11.77;8.27;;;;;;;5.46;62.08;102399.84;5032588;28;20080;-80
2022/01/18 01:53:24;;;;;;;8.32;7.47;;;;;;;5.60;61.61;102388.78;5032559;28;20465;-80
2022/01/18 01:55:51;;;;;;;9.32;7.43;;;;;;;5.58;61.81;102394.09;5050540;28;20075;-80
2022/01/18 01:58:21;;;;;;;8.73;7.15;;;;;;;5.07;62.51;102314.44;5031778;28;20055;-80
2022/01/18 02:00:50;;;;;;;9.18;7.63;;;;;;;5.37;62.84;102368.63;5030946;28;20476;-81
2022/01/18 02:03:18;;;;;;;10.98;7.60;;;;;;;5.48;61.88;102376.94;5028865;28;20122;-80
2022/01/18 02:05:46;;;;;;;9.70;6.88;;;;;;;5.43;62.07;102376.25;5028906;28;20086;-81
2022/01/18 02:08:13;;;;;;;10.38;7.30;;;;;;;5.49;62.33;102376.88;5029507;28;20135;-80
2022/01/18 02:10:41;;;;;;;8.07;6.78;;;;;;;5.22;62.64;102339.31;5046668;28;20040;-80
2022/01/18 02:13:11;;;;;;;11.18;8.02;;;;;;;5.53;60.61;102399.56;5048669;28;20383;-79
2022/01/18 02:15:45;;;;;;;9.65;8.40;;;;;;;5.62;59.07;102416.78;5031446;28;20102;-82
2022/01/18 02:23:42;;;;;;;11.45;7.72;;;;;;;5.08;57.71;102412.69;5048972;28;20053;-80
2022/01/18 02:26:09;;;;;;;13.57;8.40;;;;;;;4.95;58.42;102409.63;5031809;28;20111;-80
2022/01/18 02:28:35;;;;;;;11.88;8.52;;;;;;;4.84;58.32;102407.41;5028828;28;20049;-82
2022/01/18 02:31:05;;;;;;;10.52;9.32;;;;;;;4.60;58.22;102363.56;5028861;28;20065;-80
2022/01/18 02:33:31;;;;;;;10.55;8.48;;;;;;;4.23;58.68;102331.53;5028632;28;20281;-81
2022/01/18 02:35:58;;;;;;;9.05;8.13;;;;;;;4.66;59.00;102423.84;5045030;28;20103;-80
2022/01/18 02:38:25;;;;;;;11.37;8.97;;;;;;;4.64;59.09;102437.06;5028765;28;20140;-80
2022/01/18 02:40:51;;;;;;;11.32;9.63;;;;;;;4.46;58.51;102420.13;5028415;28;20051;-81
2022/01/18 02:46:03;;;;;;;13.57;12.15;;;;;;;4.57;58.30;102459.22;5046037;28;20136;-80
2022/01/18 02:48:30;;;;;;;19.58;14.48;;;;;;;4.48;59.14;102451.66;5045063;28;20597;-80
2022/01/18 02:50:59;;;;;;;17.43;15.60;;;;;;;4.24;60.08;102459.44;5045237;28;20311;-81
2022/01/18 02:53:25;;;;;;;21.90;16.27;;;;;;;3.94;61.96;102463.91;5028831;28;20099;-81
2022/01/18 02:55:54;;;;;;;18.77;16.97;;;;;;;3.85;62.46;102453.69;5046265;28;20138;-81
2022/01/18 02:58:27;;;;;;;24.37;20.23;;;;;;;3.64;64.32;102460.44;5028660;28;20049;-79
2022/01/18 03:03:37;;;;;;;25.42;22.63;;;;;;;3.33;67.97;102455.28;5045930;28;20335;-81
2022/01/18 03:06:06;;;;;;;28.00;23.10;;;;;;;3.01;69.03;102420.31;5029047;28;20045;-80
2022/01/18 03:08:34;;;;;;;27.43;23.80;;;;;;;3.19;68.63;102461.75;5028693;28;20155;-81
2022/01/18 03:11:02;;;;;;;31.07;25.30;;;;;;;2.96;70.09;102464.16;5028697;28;20503;-82
2022/01/18 03:13:31;;;;;;;33.33;25.73;;;;;;;2.96;70.39;102446.66;5028425;28;20068;-80
2022/01/18 03:15:58;;;;;;;30.27;26.10;;;;;;;3.03;70.71;102465.72;5028116;28;20070;-79
2022/01/18 03:18:25;;;;;;;43.70;26.03;;;;;;;2.88;70.72;102424.16;5028490;28;20049;-80
2022/01/18 03:20:54;;;;;;;27.70;24.80;;;;;;;3.06;70.41;102449.91;5028403;28;20065;-80
2022/01/18 03:23:22;;;;;;;27.33;24.47;;;;;;;3.06;71.50;102449.00;5028303;28;20037;-81
2022/01/18 03:26:01;;;;;;;26.40;23.57;;;;;;;3.11;70.41;102442.75;5045998;28;20077;-80
2022/01/18 03:28:28;;;;;;;26.57;23.87;;;;;;;3.12;70.60;102446.22;5031788;28;20491;-80
2022/01/18 03:30:58;;;;;;;26.40;23.53;;;;;;;2.90;71.66;102425.84;5049486;28;20150;-81
2022/01/18 03:33:30;;;;;;;26.23;23.47;;;;;;;3.16;71.90;102477.59;5049905;28;20621;-79
2022/01/18 03:35:57;;;;;;;27.65;24.77;;;;;;;2.34;71.37;102339.94;5032040;28;20366;-82
2022/01/18 03:38:31;;;;;;;27.93;24.97;;;;;;;2.84;70.19;102396.28;5032295;28;20076;-81
2022/01/18 03:41:01;;;;;;;27.13;24.23;;;;;;;3.28;69.83;102480.78;5049322;28;20132;-80
2022/01/18 03:43:34;;;;;;;28.87;24.67;;;;;;;3.15;70.56;102488.97;5031868;28;20156;-80
2022/01/18 03:46:04;;;;;;;31.00;25.03;;;;;;;3.14;70.66;102489.91;5031895;28;20434;-80
2022/01/18 03:48:35;;;;;;;28.13;25.13;;;;;;;3.11;69.58;102479.50;5031564;28;20087;-79
2022/01/18 03:51:03;;;;;;;34.43;27.70;;;;;;;3.13;71.60;102517.06;5031649;28;20049;-82
2022/01/18 03:53:30;;;;;;;34.00;28.53;;;;;;;3.03;73.05;102504.22;5031716;28;20045;-82
2022/01/18 03:55:57;;;;;;;33.70;28.10;;;;;;;2.88;73.03;102492.38;5031322;28;20053;-79
2022/01/18 03:58:24;;;;;;;35.90;27.37;;;;;;;2.68;73.27;102475.38;5031498;28;20052;-80
2022/01/18 04:00:51;;;;;;;33.03;29.10;;;;;;;2.58;74.21;102478.31;5031505;28;20076;-82
2022/01/18 04:03:18;;;;;;;33.80;28.43;;;;;;;2.82;74.84;102513.53;5047846;28;20052;-81
2022/01/18 04:05:46;;;;;;;35.30;30.23;;;;;;;2.73;75.18;102504.97;5030975;28;20049;-82
2022/01/18 04:08:14;;;;;;;37.30;30.23;;;;;;;2.78;76.03;102492.59;5031155;28;20064;-81
2022/01/18 04:10:40;;;;;;;43.20;31.77;;;;;;;2.75;76.26;102476.94;5030711;28;20076;-81
2022/01/18 04:13:07;;;;;;;38.50;32.17;;;;;;;2.76;75.91;102483.91;5030966;28;20139;-82
2022/01/18 04:15:34;;;;;;;39.47;32.10;;;;;;;2.95;75.80;102509.66;5047711;28;20080;-81
2022/01/18 04:18:11;;;;;;;43.13;32.93;;;;;;;3.00;76.12;102510.41;5030962;28;20688;-81
2022/01/18 04:28:53;;;;;;;48.90;35.70;;;;;;;2.74;77.86;102461.25;5049856;28;20080;-81
2022/01/18 04:31:21;;;;;;;48.87;34.10;;;;;;;3.21;78.45;102543.94;5031358;28;20391;-80
2022/01/18 04:33:48;;;;;;;46.80;34.60;;;;;;;3.35;77.56;102561.06;5030764;28;20084;-80
2022/01/18 04:36:15;;;;;;;56.13;35.43;;;;;;;3.27;77.57;102536.81;5047007;28;20318;-80
2022/01/18 04:38:42;;;;;;;67.20;35.37;;;;;;;3.36;77.59;102544.44;5029736;28;20562;-81
2022/01/18 04:41:15;;;;;;;65.17;34.57;;;;;;;3.29;77.64;102542.88;5030740;28;20107;-81
2022/01/18 04:44:05;;;;;;;67.17;35.40;;;;;;;3.38;77.98;102577.63;5048039;28;20137;-81
2022/01/18 04:49:17;;;;;;;40.37;33.20;;;;;;;3.47;76.86;102587.03;5048686;28;20052;-81
2022/01/18 04:51:47;;;;;;;39.43;31.47;;;;;;;3.40;77.07;102581.06;5030440;28;20061;-81
2022/01/18 04:54:15;;;;;;;43.87;33.93;;;;;;;3.38;77.88;102587.25;5030432;28;20049;-80
2022/01/18 04:59:10;;;;;;;40.47;31.93;;;;;;;3.25;77.87;102564.84;5048387;28;20140;-80
2022/01/18 05:01:40;;;;;;;48.57;33.03;;;;;;;3.55;79.15;102600.78;5047627;28;20132;-80
2022/01/18 05:04:07;;;;;;;54.47;31.87;;;;;;;3.52;79.54;102590.38;5044888;28;20053;-80
2022/01/18 05:06:34;;;;;;;49.40;32.37;;;;;;;3.59;80.14;102597.19;5025547;28;20326;-81
2022/01/18 05:09:07;;;;;;;67.43;32.10;;;;;;;3.59;80.82;102585.78;5029495;28;20045;-81
2022/01/18 05:11:48;;;;;;;85.00;29.60;;;;;;;3.77;80.57;102611.56;5046837;28;20661;-81
2022/01/18 05:17:21;;;;;;;51.40;29.93;;;;;;;3.86;nan;102626.22;5029987;28;20067;-79
2022/01/18 05:20:23;;;;;;;61.67;30.13;;;;;;;3.72;81.02;102599.47;5028791;28;20045;-80
2022/01/18 05:25:20;;;;;;;52.53;30.60;;;;;;;4.04;81.14;102653.72;5048321;28;20053;-81
2022/01/18 05:27:47;;;;;;;56.47;30.00;;;;;;;4.10;80.41;102671.94;5031142;28;20515;-82
2022/01/18 05:30:13;;;;;;;48.63;30.13;;;;;;;4.14;80.64;102677.97;5028830;28;20045;-81
2022/01/18 05:32:40;;;;;;;75.43;29.87;;;;;;;4.12;80.55;102658.75;5028583;28;20137;-81
2022/01/18 05:35:07;;;;;;;63.47;29.83;;;;;;;4.19;79.71;102670.81;5028229;28;20454;-80
2022/01/18 05:37:34;;;;;;;65.03;31.63;;;;;;;4.03;80.41;102663.38;5028323;28;20055;-81
2022/01/18 05:40:00;;;;;;;48.20;28.83;;;;;;;4.11;80.44;102678.94;5028396;28;20052;-81
2022/01/18 05:42:27;;;;;;;48.67;30.00;;;;;;;4.07;79.69;102664.13;5028518;28;20118;-83
2022/01/18 05:44:54;;;;;;;40.80;29.03;;;;;;;4.10;80.14;102671.06;5028511;28;20505;-81
2022/01/18 05:47:20;;;;;;;38.83;28.63;;;;;;;4.10;80.68;102671.06;5028301;28;20137;-82
2022/01/18 05:49:51;;;;;;;40.93;28.90;;;;;;;3.83;79.68;102627.13;5045809;28;20057;-82
2022/01/18 05:52:18;;;;;;;37.53;28.17;;;;;;;4.09;80.22;102679.88;5028057;28;20492;-83
2022/01/18 05:54:45;;;;;;;41.50;29.50;;;;;;;4.15;80.39;102679.69;5028085;28;20155;-80
2022/01/18 05:57:13;;;;;;;38.80;29.03;;;;;;;3.95;79.13;102646.94;5028721;28;20052;-80
2022/01/18 05:59:44;;;;;;;40.70;28.83;;;;;;;4.02;79.08;102645.88;5027974;28;20088;-80
2022/01/18 06:02:19;;;;;;;38.30;28.40;;;;;;;4.06;79.83;102665.06;5045534;28;20049;-81
2022/01/18 06:07:31;;;;;;;44.00;29.90;;;;;;;4.12;79.31;102685.03;5045847;28;20127;-82
2022/01/18 06:09:57;;;;;;;43.70;31.00;;;;;;;4.09;79.48;102674.63;5027582;28;20508;-82
2022/01/18 06:12:27;;;;;;;43.37;29.83;;;;;;;4.12;79.02;102687.66;5028106;28;20060;-82
2022/01/18 06:14:54;;;;;;;43.73;28.97;;;;;;;4.06;79.08;102692.19;5027539;28;20051;-80
2022/01/18 06:17:20;;;;;;;42.03;29.67;;;;;;;3.90;79.62;102664.63;5028243;28;20061;-82
2022/01/18 06:19:49;;;;;;;40.30;30.00;;;;;;;4.01;78.97;102688.84;5024384;28;20053;-81
2022/01/18 06:22:16;;;;;;;39.97;28.33;;;;;;;3.78;79.25;102659.69;5027615;28;20127;-82
2022/01/18 06:24:43;;;;;;;38.90;29.43;;;;;;;3.90;79.03;102683.00;5028024;28;20563;-80
2022/01/18 06:27:09;;;;;;;37.63;27.80;;;;;;;3.98;78.60;102693.31;5028879;28;20150;-80
2022/01/18 06:29:37;;;;;;;39.70;28.63;;;;;;;3.91;78.54;102687.38;5031036;28;20168;-80
2022/01/18 06:32:07;;;;;;;36.40;27.77;;;;;;;3.91;77.82;102687.38;5032688;28;20059;-82
2022/01/18 06:34:34;;;;;;;37.80;28.43;;;;;;;3.95;77.86;102699.50;5045483;28;20115;-81
2022/01/18 06:37:02;;;;;;;39.77;29.17;;;;;;;3.89;77.47;102672.56;5025848;28;20045;-82
2022/01/18 06:39:29;;;;;;;36.60;27.47;;;;;;;3.98;76.68;102693.31;5024658;28;20056;-81
2022/01/18 06:41:56;;;;;;;39.83;28.57;;;;;;;3.99;76.48;102695.03;5024068;28;20076;-81
2022/01/18 06:44:24;;;;;;;36.70;28.23;;;;;;;3.98;76.52;102694.19;5024020;28;20064;-82
2022/01/18 06:46:52;;;;;;;38.23;26.23;;;;;;;4.06;76.97;102712.38;5025826;28;20501;-81
2022/01/18 06:49:18;;;;;;;36.97;27.57;;;;;;;3.14;76.95;102552.88;5024390;28;20050;-82
2022/01/18 06:51:45;;;;;;;34.20;26.87;;;;;;;3.77;75.96;102632.56;5024373;28;20099;-83
2022/01/18 06:54:17;;;;;;;36.77;27.23;;;;;;;4.04;75.03;102683.50;5023658;28;20050;-81
2022/01/18 06:56:49;;;;;;;32.60;25.45;;;;;;;3.33;74.38;102565.53;5031885;28;20195;-82
2022/01/18 06:59:17;;;;;;;33.57;25.57;;;;;;;4.01;75.14;102699.34;5043862;28;20479;-81
2022/01/18 07:01:44;;;;;;;34.63;25.67;;;;;;;3.56;74.85;102634.00;5030372;28;20049;-81
2022/01/18 07:04:14;;;;;;;33.47;26.17;;;;;;;3.51;75.32;102635.91;5027918;28;20429;-81
2022/01/18 07:06:41;;;;;;;37.70;27.33;;;;;;;4.01;75.77;102715.13;5027830;28;20448;-79
2022/01/18 07:09:07;;;;;;;34.58;26.73;;;;;;;3.97;75.22;102710.84;5031051;28;20060;-80
2022/01/18 07:11:37;;;;;;;34.90;26.40;;;;;;;3.97;75.09;102723.97;5031810;28;20241;-80
2022/01/18 07:14:04;;;;;;;32.87;26.20;;;;;;;4.04;74.86;102736.06;5031385;28;20063;-80
2022/01/18 07:16:34;;;;;;;33.50;24.50;;;;;;;4.03;75.13;102741.38;5049000;28;20059;-82
2022/01/18 07:19:01;;;;;;;28.57;23.30;;;;;;;4.03;74.71;102747.50;5030756;28;20376;-81
2022/01/18 07:21:28;;;;;;;31.73;24.73;;;;;;;4.02;74.83;102752.78;5031388;28;20051;-80
2022/01/18 07:24:05;;;;;;;30.83;23.97;;;;;;;3.99;74.57;102751.09;5031305;28;20060;-81
2022/01/18 07:26:33;;;;;;;28.83;24.93;;;;;;;4.07;74.04;102771.91;5031770;28;20106;-81
2022/01/18 07:28:59;;;;;;;32.37;24.73;;;;;;;4.10;74.89;102779.69;5033199;28;20055;-81
2022/01/18 07:31:26;;;;;;;29.83;24.40;;;;;;;3.90;74.46;102738.19;5031251;28;20063;-81
2022/01/18 07:33:53;;;;;;;28.47;22.57;;;;;;;4.18;74.08;102779.53;5030370;28;20053;-81
2022/01/18 07:36:21;;;;;;;31.93;25.60;;;;;;;4.20;72.72;102777.69;5031338;28;20057;-81
2022/01/18 07:38:48;;;;;;;35.43;24.70;;;;;;;4.20;73.01;102769.81;5030583;28;20616;-80
2022/01/18 07:41:14;;;;;;;31.07;24.17;;;;;;;3.97;73.41;102750.25;5026960;28;20121;-81
2022/01/18 07:43:41;;;;;;;33.97;26.40;;;;;;;3.89;73.78;102730.38;5027388;28;20063;-81
2022/01/18 07:46:08;;;;;;;29.93;24.90;;;;;;;4.26;73.24;102783.66;5028252;28;20049;-82
2022/01/18 07:48:35;;;;;;;32.53;24.53;;;;;;;4.26;74.31;102788.91;5026995;28;20060;-82
2022/01/18 07:51:02;;;;;;;30.10;24.20;;;;;;;3.99;73.82;102732.69;5026893;28;20038;-81
2022/01/18 07:53:28;;;;;;;35.53;23.67;;;;;;;4.05;73.69;102752.69;5027088;28;20112;-78
2022/01/18 07:55:55;;;;;;;35.10;26.60;;;;;;;3.79;73.82;102711.38;5025708;28;20136;-82
2022/01/18 07:58:22;;;;;;;33.83;26.70;;;;;;;4.28;73.24;102792.38;5026802;28;20103;-81
2022/01/18 08:00:49;;;;;;;32.77;25.17;;;;;;;4.34;73.07;102791.31;5025938;28;20447;-81
2022/01/18 08:03:16;;;;;;;35.07;26.13;;;;;;;4.37;73.15;102791.25;5026222;28;20057;-81
2022/01/18 08:05:44;;;;;;;31.90;25.07;;;;;;;4.46;72.48;102790.97;5026536;28;20045;-81
2022/01/18 08:08:11;;;;;;;29.70;25.47;;;;;;;4.46;72.06;102790.13;5027708;28;20581;-81
2022/01/18 08:10:39;;;;;;;32.27;24.70;;;;;;;4.53;72.89;102817.13;5030504;28;20378;-81
2022/01/18 08:13:06;;;;;;;29.83;25.80;;;;;;;4.41;72.28;102798.13;5029845;28;20053;-83
2022/01/18 08:15:42;;;;;;;32.17;23.93;;;;;;;4.47;72.56;102807.66;5031371;28;20144;-81
2022/01/18 08:18:15;;;;;;;37.87;27.23;;;;;;;4.62;72.12;102819.50;5048856;28;20048;-81
2022/01/18 08:20:42;;;;;;;32.53;26.33;;;;;;;4.70;72.57;102828.03;5030944;28;20088;-82
2022/01/18 08:23:09;;;;;;;34.17;26.27;;;;;;;4.53;72.76;102807.44;5049105;28;20560;-81
2022/01/18 08:25:37;;;;;;;32.20;25.10;;;;;;;4.71;72.02;102837.66;5031085;28;20101;-82
2022/01/18 08:28:04;;;;;;;33.87;25.30;;;;;;;4.70;72.25;102831.50;5047246;28;20481;-81
2022/01/18 08:30:31;;;;;;;37.00;28.03;;;;;;;4.71;71.68;102824.50;5048945;28;20152;-82
2022/01/18 08:32:57;;;;;;;34.63;27.27;;;;;;;4.40;71.80;102767.50;5048209;28;20053;-83
2022/01/18 08:35:25;;;;;;;33.13;27.10;;;;;;;4.85;71.65;102835.47;5051398;28;20061;-82
2022/01/18 08:37:52;;;;;;;36.13;27.80;;;;;;;4.78;71.51;102820.78;5036990;28;20053;-82
2022/01/18 08:40:19;;;;;;;32.10;25.87;;;;;;;4.70;70.88;102778.03;5034992;28;20143;-82
2022/01/18 08:42:49;;;;;;;35.47;27.02;;;;;;;4.90;70.77;102819.53;5031175;28;20144;-81
2022/01/18 08:45:16;;;;;;;36.22;27.52;;;;;;;5.06;70.65;102843.66;5030827;28;20102;-82
2022/01/18 08:47:48;;;;;;;32.05;26.40;;;;;;;5.08;70.55;102853.22;5048720;28;20052;-82
2022/01/18 08:50:17;;;;;;;33.57;27.00;;;;;;;4.95;69.89;102830.78;5030521;28;20144;-82
2022/01/18 08:52:44;;;;;;;31.80;26.83;;;;;;;5.20;69.50;102856.41;5030469;28;20435;-80
2022/01/18 08:55:14;;;;;;;34.63;24.13;;;;;;;5.13;69.30;102850.47;5049660;28;20338;-82
2022/01/18 08:57:52;;;;;;;33.30;25.20;;;;;;;5.26;68.74;102867.59;5032373;28;20104;-81
2022/01/18 09:00:35;;;;;;;30.27;24.65;;;;;;;5.19;69.03;102855.53;5039672;28;20049;-81
2022/01/18 09:03:19;;;;;;;25.92;21.95;;;;;;;5.37;67.74;102880.44;5038348;28;20091;-81
2022/01/18 09:05:58;;;;;;;26.25;21.35;;;;;;;5.48;67.53;102885.38;5043747;28;20075;-80
2022/01/18 09:08:38;;;;;;;26.98;22.20;;;;;;;5.50;67.00;102897.59;5055403;28;20048;-80
2022/01/18 09:11:19;;;;;;;31.35;22.80;;;;;;;5.53;67.32;102904.53;5036176;28;20049;-81
2022/01/18 09:14:15;;;;;;;28.63;22.38;;;;;;;5.55;67.48;102905.34;5034710;28;20589;-81
2022/01/18 09:17:01;;;;;;;32.35;25.67;;;;;;;5.64;67.76;102910.34;5033855;28;20041;-80
2022/01/18 09:19:55;;;;;;;31.65;26.15;;;;;;;5.65;67.45;102911.19;5035500;28;20109;-81
2022/01/18 09:22:41;;;;;;;;;;;;;;;5.67;68.19;102912.88;5034644;28;20064;-80
2022/01/18 09:25:21;;;;;;;43.50;28.77;;;;;;;5.69;68.22;102920.75;5034211;28;19925;-83
2022/01/18 09:28:10;;;;;;;39.17;29.20;;;;;;;5.63;69.29;102921.81;5037443;28;20048;-80
2022/01/18 09:31:20;;;;;;;41.70;31.83;;;;;;;5.59;70.25;102938.63;5038036;28;20115;-82
2022/01/18 09:33:51;;;;;;;37.70;30.17;;;;;;;5.64;69.64;102936.69;5053534;28;20045;-80
2022/01/18 09:36:26;;;;;;;42.03;31.42;;;;;;;5.55;68.80;102910.63;5052374;28;20045;-80
2022/01/18 09:39:06;;;;;;;43.05;31.15;;;;;;;4.09;68.62;102670.22;5035958;28;20053;-81
2022/01/18 09:41:52;;;;;;;44.67;32.05;;;;;;;5.64;68.86;102936.69;5035405;28;20052;-80
2022/01/18 09:45:25;;;;;;;41.45;31.73;;;;;;;5.56;69.60;102944.00;5036601;28;20061;-80
2022/01/18 09:48:14;;;;;;;43.78;33.33;;;;;;;4.55;69.88;102776.72;5032181;28;20496;-80
2022/01/18 09:50:58;;;;;;;43.30;31.08;;;;;;;5.26;70.06;102899.19;5034960;28;20051;-81
2022/01/18 09:56:57;;;;;;;43.05;32.40;;;;;;;3.90;70.63;102679.53;4966908;28;20538;-79
2022/01/18 09:59:38;;;;;;;40.87;32.83;;;;;;;3.94;70.55;102681.19;4955487;28;20055;-79
2022/01/18 10:05:38;;;;;;;50.33;33.70;;;;;;;5.46;70.88;102921.44;5026963;28;20130;-83
2022/01/18 10:08:41;;;;;;;48.57;34.33;;;;;;;5.49;70.56;102924.00;5034659;28;20103;-85
2022/01/18 10:11:17;;;;;;;52.90;35.13;;;;;;;4.85;71.42;102832.81;5034044;28;20412;-81
2022/01/18 10:14:00;;;;;;;47.30;34.93;;;;;;;5.52;71.50;102943.19;5032528;28;20052;-82
2022/01/18 10:16:43;;;;;;;50.03;35.87;;;;;;;5.22;71.63;102892.31;5034236;28;20110;-82
2022/01/18 10:19:10;;;;;;;47.90;34.97;;;;;;;5.42;71.78;102944.41;5050903;28;20174;-79
2022/01/18 10:22:11;;;;;;;49.80;34.85;;;;;;;5.52;72.90;102969.56;5034504;28;20135;-79
2022/01/18 10:24:39;;;;;;;51.03;35.27;;;;;;;5.57;73.41;102975.53;5034019;28;20044;-81
2022/01/18 10:27:10;;;;;;;52.27;36.07;;;;;;;5.62;73.63;102982.47;5034470;28;20511;-79
2022/01/18 10:30:00;;;;;;;51.97;36.78;;;;;;;5.53;73.39;102959.88;5049871;28;20052;-82
2022/01/18 10:32:39;;;;;;;54.70;37.72;;;;;;;5.39;73.31;102928.69;5033281;28;20311;-79
2022/01/18 10:35:14;;;;;;;54.63;37.47;;;;;;;5.75;73.42;102974.13;5032580;28;20650;-80
2022/01/18 10:37:54;;;;;;;57.10;37.80;;;;;;;5.74;73.03;102968.91;5033192;28;20072;-80
2022/01/18 10:40:26;;;;;;;55.10;36.92;;;;;;;5.18;73.46;102885.41;5030969;28;20051;-80
2022/01/18 10:43:03;;;;;;;58.50;38.78;;;;;;;5.59;73.36;102943.88;5049045;28;20303;-80
2022/01/18 10:45:48;;;;;;;50.53;37.03;;;;;;;5.70;73.52;102968.13;5052117;28;20157;-80
2022/01/18 10:48:17;;;;;;;59.72;39.63;;;;;;;5.59;74.17;102964.13;5032252;28;20059;-80
2022/01/18 10:50:53;;;;;;;55.58;36.90;;;;;;;5.59;73.99;102962.34;5050263;28;20401;-79
2022/01/18 10:53:35;;;;;;;57.77;39.00;;;;;;;5.32;74.93;102928.00;5046923;28;20053;-80
2022/01/18 10:56:20;;;;;;;51.30;36.97;;;;;;;5.54;74.94;102951.06;5027044;28;20058;-81
2022/01/18 10:58:53;;;;;;;56.03;40.00;;;;;;;4.88;74.23;102827.50;5011282;28;20081;-79
2022/01/18 11:01:25;;;;;;;51.63;38.13;;;;;;;5.40;74.63;102904.06;5010246;28;20054;-82
2022/01/18 11:04:19;;;;;;;60.70;38.83;;;;;;;5.73;74.20;102957.50;5009713;28;20513;-82
2022/01/18 11:06:58;;;;;;;52.97;36.17;;;;;;;5.74;74.61;102963.63;5012200;28;20116;-80
2022/01/18 11:09:36;;;;;;;51.67;36.97;;;;;;;5.08;74.37;102857.63;5017933;28;20049;-81
2022/01/18 11:12:14;;;;;;;57.87;38.13;;;;;;;5.60;75.31;102950.88;5048248;28;20059;-83
2022/01/18 11:15:07;;;;;;;56.47;38.63;;;;;;;5.58;76.03;102947.41;5033220;28;20101;-82
2022/01/18 11:17:40;;;;;;;53.95;39.80;;;;;;;4.64;76.31;102791.38;5034043;28;20136;-82
2022/01/18 11:20:09;;;;;;;53.03;37.38;;;;;;;5.69;75.82;102949.75;5031596;28;20049;-81
2022/01/18 11:22:49;;;;;;;53.05;37.38;;;;;;;3.94;75.13;102645.25;5029055;28;20045;-80
2022/01/18 11:26:06;;;;;;;44.87;35.00;;;;;;;5.78;74.61;102960.84;5029256;28;20053;-82
2022/01/18 11:28:59;;;;;;;51.58;36.53;;;;;;;5.62;75.17;102948.19;5049779;28;20072;-81
2022/01/18 11:31:40;;;;;;;49.43;36.23;;;;;;;5.33;74.86;102890.19;5051216;28;20419;-83
2022/01/18 11:34:59;;;;;;;47.53;34.93;;;;;;;5.82;75.02;102952.84;5052926;28;20036;-81
2022/01/18 11:38:30;;;;;;;51.53;36.63;;;;;;;5.85;75.25;102944.84;5050638;28;20041;-80
2022/01/18 11:44:27;;;;;;;53.17;36.22;;;;;;;5.50;74.36;102863.34;5038574;28;20053;-82
2022/01/18 11:47:02;;;;;;;52.90;37.40;;;;;;;6.12;74.42;102948.41;5027872;28;20108;-82
2022/01/18 11:49:36;;;;;;;48.10;36.67;;;;;;;6.23;74.33;102958.59;5046920;28;20228;-79
2022/01/18 11:52:11;;;;;;;53.03;36.38;;;;;;;6.33;73.75;102954.72;5031035;28;20056;-82
2022/01/18 11:55:09;;;;;;;54.00;36.40;;;;;;;6.38;73.17;102955.44;5031974;28;20049;-79
2022/01/18 11:57:40;;;;;;;47.88;35.88;;;;;;;6.43;73.51;102956.13;5032168;28;20118;-80
2022/01/18 12:00:22;;;;;;;54.58;37.20;;;;;;;6.51;73.25;102945.34;5033661;28;20053;-81
2022/01/18 12:02:56;;;;;;;56.45;37.35;;;;;;;6.48;73.19;102940.16;5034673;28;20316;-81
2022/01/18 12:05:27;;;;;;;50.72;35.92;;;;;;;6.48;73.59;102959.50;5038168;28;20083;-81
2022/01/18 12:08:00;;;;;;;55.00;37.50;;;;;;;6.48;73.36;102953.34;5035803;28;20071;-81
2022/01/18 12:10:31;;;;;;;;;;;;;;;6.47;72.57;102963.06;5046900;28;20321;-82
2022/01/18 12:12:59;;;;;;;50.15;36.22;;;;;;;6.56;73.04;102948.69;5029974;28;20271;-82
2022/01/18 12:15:29;;;;;;;57.72;36.67;;;;;;;6.60;72.77;102940.63;5030183;28;20337;-82
2022/01/18 12:18:00;;;;;;;51.80;38.63;;;;;;;6.31;72.63;102903.78;5030269;28;20064;-83
2022/01/18 12:20:35;;;;;;;54.63;38.15;;;;;;;6.62;72.41;102943.19;5047745;28;20097;-81
2022/01/18 12:23:12;;;;;;;52.97;36.95;;;;;;;6.64;72.27;102942.22;5030682;28;20045;-81
2022/01/18 12:28:57;;;;;;;56.20;37.78;;;;;;;6.52;72.14;102921.53;5049251;28;20052;-79
2022/01/18 12:34:47;;;;;;;53.38;38.15;;;;;;;5.92;73.49;102869.91;5049680;28;20313;-82
2022/01/18 12:37:17;;;;;;;52.22;37.95;;;;;;;6.26;73.96;102934.75;5038641;28;20246;-80
2022/01/18 12:39:57;;;;;;;52.70;37.00;;;;;;;6.24;74.03;102934.81;5032849;28;20083;-82
2022/01/18 12:45:16;;;;;;;50.55;37.92;;;;;;;4.95;73.91;102740.44;5049465;28;20057;-82
2022/01/18 12:48:04;;;;;;;55.38;38.13;;;;;;;6.18;74.49;102933.22;5032275;28;20049;-81
2022/01/18 12:50:37;;;;;;;49.17;37.65;;;;;;;6.26;74.29;102929.47;5031666;28;20148;-81
2022/01/18 12:53:11;;;;;;;53.95;38.03;;;;;;;6.27;73.64;102915.38;5030972;28;20099;-83
2022/01/18 12:55:43;;;;;;;46.00;35.95;;;;;;;6.34;73.20;102901.94;5030551;28;20107;-82
2022/01/18 12:58:16;;;;;;;52.45;38.33;;;;;;;6.42;73.07;102913.06;5029949;28;20072;-81
2022/01/18 13:00:47;;;;;;;55.65;39.05;;;;;;;5.96;72.94;102832.88;5030114;28;20055;-82
2022/01/18 13:03:33;;;;;;;50.53;37.45;;;;;;;6.10;73.04;102850.88;5029785;28;20049;-83
2022/01/18 13:06:09;;;;;;;50.28;37.78;;;;;;;6.52;72.50;102910.97;5030183;28;20055;-81
2022/01/18 13:08:53;;;;;;;53.50;37.75;;;;;;;6.27;72.91;102867.91;5030293;28;20107;-82
2022/01/18 13:11:29;;;;;;;53.67;37.83;;;;;;;6.38;72.57;102884.19;5028070;28;20073;-82
2022/01/18 13:14:15;;;;;;;50.38;36.72;;;;;;;6.48;73.20;102898.81;5010390;28;20254;-82